sensor_id;sensor_type;location;lat;lon;timestamp;P1;durP1;ratioP1;P2;durP2;ratioP2
64875;SDS011;51369;49.862;9.908;2024-02-04T00:00:28;3.20;;;2.15;;
64875;SDS011;51369;49.862;9.908;2024-02-04T00:02:53;2.42;;;2.10;;
64875;SDS011;51369;49.862;9.908;2024-02-04T00:05:19;3.13;;;2.20;;
64875;SDS011;51369;49.862;9.908;2024-02-04T00:07:44;6.40;;;2.30;;
64875;SDS011;51369;49.862;9.908;2024-02-04T00:10:10;2.67;;;1.80;;
64875;SDS011;51369;49.862;9.908;2024-02-04T00:12:36;1.90;;;1.67;;
64875;SDS011;51369;49.862;9.908;2024-02-04T00:15:01;3.33;;;2.10;;
64875;SDS011;51369;49.862;9.908;2024-02-04T00:17:29;2.28;;;2.03;;
64875;SDS011;51369;49.862;9.908;2024-02-04T00:19:57;2.28;;;2.08;;
64875;SDS011;51369;49.862;9.908;2024-02-04T00:22:23;3.33;;;1.73;;
64875;SDS011;51369;49.862;9.908;2024-02-04T00:24:48;2.30;;;2.10;;
64875;SDS011;51369;49.862;9.908;2024-02-04T00:27:14;2.53;;;1.70;;
64875;SDS011;51369;49.862;9.908;2024-02-04T00:29:39;2.33;;;2.13;;
64875;SDS011;51369;49.862;9.908;2024-02-04T00:32:04;2.22;;;2.03;;
64875;SDS011;51369;49.862;9.908;2024-02-04T00:34:30;2.13;;;1.98;;
64875;SDS011;51369;49.862;9.908;2024-02-04T00:36:55;2.08;;;1.88;;
64875;SDS011;51369;49.862;9.908;2024-02-04T00:39:21;2.22;;;1.95;;
64875;SDS011;51369;49.862;9.908;2024-02-04T00:41:46;2.28;;;2.08;;
64875;SDS011;51369;49.862;9.908;2024-02-04T00:44:11;2.38;;;2.13;;
64875;SDS011;51369;49.862;9.908;2024-02-04T00:46:37;2.72;;;2.13;;
64875;SDS011;51369;49.862;9.908;2024-02-04T00:49:02;2.03;;;1.83;;
64875;SDS011;51369;49.862;9.908;2024-02-04T00:51:28;2.25;;;1.90;;
64875;SDS011;51369;49.862;9.908;2024-02-04T00:53:53;2.30;;;2.10;;
64875;SDS011;51369;49.862;9.908;2024-02-04T00:56:20;2.40;;;2.10;;
64875;SDS011;51369;49.862;9.908;2024-02-04T00:58:46;2.20;;;2.00;;
64875;SDS011;51369;49.862;9.908;2024-02-04T01:01:11;2.13;;;1.95;;
64875;SDS011;51369;49.862;9.908;2024-02-04T01:03:36;2.72;;;2.20;;
64875;SDS011;51369;49.862;9.908;2024-02-04T01:06:02;2.17;;;2.00;;
64875;SDS011;51369;49.862;9.908;2024-02-04T01:08:27;2.72;;;2.53;;
64875;SDS011;51369;49.862;9.908;2024-02-04T01:10:53;3.10;;;1.92;;
64875;SDS011;51369;49.862;9.908;2024-02-04T01:13:19;5.05;;;2.30;;
64875;SDS011;51369;49.862;9.908;2024-02-04T01:15:44;2.33;;;2.13;;
64875;SDS011;51369;49.862;9.908;2024-02-04T01:18:11;2.20;;;2.00;;
64875;SDS011;51369;49.862;9.908;2024-02-04T01:20:38;2.30;;;2.10;;
64875;SDS011;51369;49.862;9.908;2024-02-04T01:23:03;3.60;;;2.30;;
64875;SDS011;51369;49.862;9.908;2024-02-04T01:25:29;2.30;;;2.10;;
64875;SDS011;51369;49.862;9.908;2024-02-04T01:27:54;2.42;;;2.15;;
64875;SDS011;51369;49.862;9.908;2024-02-04T01:30:20;3.80;;;2.05;;
64875;SDS011;51369;49.862;9.908;2024-02-04T01:32:46;2.58;;;2.20;;
64875;SDS011;51369;49.862;9.908;2024-02-04T01:35:11;3.15;;;2.22;;
64875;SDS011;51369;49.862;9.908;2024-02-04T01:37:37;3.75;;;1.98;;
64875;SDS011;51369;49.862;9.908;2024-02-04T01:40:02;2.38;;;2.17;;
64875;SDS011;51369;49.862;9.908;2024-02-04T01:42:28;2.65;;;2.38;;
64875;SDS011;51369;49.862;9.908;2024-02-04T01:44:53;4.38;;;2.72;;
64875;SDS011;51369;49.862;9.908;2024-02-04T01:47:18;4.00;;;2.35;;
64875;SDS011;51369;49.862;9.908;2024-02-04T01:49:45;3.03;;;2.38;;
64875;SDS011;51369;49.862;9.908;2024-02-04T01:52:10;2.72;;;2.28;;
64875;SDS011;51369;49.862;9.908;2024-02-04T01:54:37;4.43;;;2.40;;
64875;SDS011;51369;49.862;9.908;2024-02-04T01:57:06;2.70;;;2.50;;
64875;SDS011;51369;49.862;9.908;2024-02-04T01:59:32;2.75;;;2.53;;
64875;SDS011;51369;49.862;9.908;2024-02-04T02:01:59;4.75;;;3.08;;
64875;SDS011;51369;49.862;9.908;2024-02-04T02:04:25;3.22;;;2.63;;
64875;SDS011;51369;49.862;9.908;2024-02-04T02:06:51;3.45;;;2.70;;
64875;SDS011;51369;49.862;9.908;2024-02-04T02:09:20;2.58;;;2.38;;
64875;SDS011;51369;49.862;9.908;2024-02-04T02:11:47;2.65;;;2.45;;
64875;SDS011;51369;49.862;9.908;2024-02-04T02:14:18;3.53;;;2.75;;
64875;SDS011;51369;49.862;9.908;2024-02-04T02:16:48;3.17;;;2.53;;
64875;SDS011;51369;49.862;9.908;2024-02-04T02:19:28;2.85;;;2.30;;
64875;SDS011;51369;49.862;9.908;2024-02-04T02:24:54;4.38;;;2.60;;
64875;SDS011;51369;49.862;9.908;2024-02-04T02:27:22;2.33;;;2.13;;
64875;SDS011;51369;49.862;9.908;2024-02-04T02:29:48;2.35;;;2.15;;
64875;SDS011;51369;49.862;9.908;2024-02-04T02:32:13;2.97;;;2.13;;
64875;SDS011;51369;49.862;9.908;2024-02-04T02:34:39;2.35;;;2.15;;
64875;SDS011;51369;49.862;9.908;2024-02-04T02:37:13;3.15;;;1.70;;
64875;SDS011;51369;49.862;9.908;2024-02-04T02:39:56;2.13;;;1.92;;
64875;SDS011;51369;49.862;9.908;2024-02-04T02:42:26;2.63;;;2.10;;
64875;SDS011;51369;49.862;9.908;2024-02-04T02:44:53;2.20;;;2.00;;
64875;SDS011;51369;49.862;9.908;2024-02-04T02:47:20;2.30;;;1.83;;
64875;SDS011;51369;49.862;9.908;2024-02-04T02:49:47;2.10;;;1.90;;
64875;SDS011;51369;49.862;9.908;2024-02-04T02:52:12;2.60;;;2.10;;
64875;SDS011;51369;49.862;9.908;2024-02-04T02:54:38;1.73;;;1.63;;
64875;SDS011;51369;49.862;9.908;2024-02-04T02:57:03;2.28;;;2.03;;
64875;SDS011;51369;49.862;9.908;2024-02-04T02:59:29;1.77;;;1.67;;
64875;SDS011;51369;49.862;9.908;2024-02-04T03:01:54;2.80;;;2.35;;
64875;SDS011;51369;49.862;9.908;2024-02-04T03:04:20;2.67;;;2.25;;
64875;SDS011;51369;49.862;9.908;2024-02-04T03:06:45;1.73;;;1.63;;
64875;SDS011;51369;49.862;9.908;2024-02-04T03:09:11;1.80;;;1.70;;
64875;SDS011;51369;49.862;9.908;2024-02-04T03:11:38;2.08;;;1.90;;
64875;SDS011;51369;49.862;9.908;2024-02-04T03:14:03;2.50;;;1.85;;
64875;SDS011;51369;49.862;9.908;2024-02-04T03:16:29;3.10;;;2.03;;
64875;SDS011;51369;49.862;9.908;2024-02-04T03:18:55;2.10;;;1.90;;
64875;SDS011;51369;49.862;9.908;2024-02-04T03:21:20;2.22;;;2.03;;
64875;SDS011;51369;49.862;9.908;2024-02-04T03:23:45;2.92;;;2.00;;
64875;SDS011;51369;49.862;9.908;2024-02-04T03:26:11;2.30;;;1.90;;
64875;SDS011;51369;49.862;9.908;2024-02-04T03:28:37;2.30;;;1.95;;
64875;SDS011;51369;49.862;9.908;2024-02-04T03:31:03;2.15;;;1.98;;
64875;SDS011;51369;49.862;9.908;2024-02-04T03:33:28;1.80;;;1.70;;
64875;SDS011;51369;49.862;9.908;2024-02-04T03:35:54;2.35;;;1.63;;
64875;SDS011;51369;49.862;9.908;2024-02-04T03:38:19;1.70;;;1.60;;
64875;SDS011;51369;49.862;9.908;2024-02-04T03:40:46;1.70;;;1.60;;
64875;SDS011;51369;49.862;9.908;2024-02-04T03:43:14;2.08;;;1.88;;
64875;SDS011;51369;49.862;9.908;2024-02-04T03:45:40;1.58;;;1.48;;
64875;SDS011;51369;49.862;9.908;2024-02-04T03:48:06;1.77;;;1.67;;
64875;SDS011;51369;49.862;9.908;2024-02-04T03:50:31;1.73;;;1.63;;
64875;SDS011;51369;49.862;9.908;2024-02-04T03:52:57;3.83;;;1.48;;
64875;SDS011;51369;49.862;9.908;2024-02-04T03:55:23;1.60;;;1.50;;
64875;SDS011;51369;49.862;9.908;2024-02-04T03:57:49;1.60;;;1.50;;
64875;SDS011;51369;49.862;9.908;2024-02-04T04:00:14;1.77;;;1.67;;
64875;SDS011;51369;49.862;9.908;2024-02-04T04:02:40;2.00;;;1.77;;
64875;SDS011;51369;49.862;9.908;2024-02-04T04:05:06;3.40;;;1.60;;
64875;SDS011;51369;49.862;9.908;2024-02-04T04:07:36;2.45;;;1.60;;
64875;SDS011;51369;49.862;9.908;2024-02-04T04:10:01;1.90;;;1.60;;
64875;SDS011;51369;49.862;9.908;2024-02-04T04:12:27;1.73;;;1.48;;
64875;SDS011;51369;49.862;9.908;2024-02-04T04:14:53;1.42;;;1.33;;
64875;SDS011;51369;49.862;9.908;2024-02-04T04:17:18;1.77;;;1.67;;
64875;SDS011;51369;49.862;9.908;2024-02-04T04:19:44;1.70;;;1.60;;
64875;SDS011;51369;49.862;9.908;2024-02-04T04:22:09;2.67;;;1.73;;
64875;SDS011;51369;49.862;9.908;2024-02-04T04:24:34;1.45;;;1.35;;
64875;SDS011;51369;49.862;9.908;2024-02-04T04:27:00;1.50;;;1.40;;
64875;SDS011;51369;49.862;9.908;2024-02-04T04:29:26;1.13;;;1.10;;
64875;SDS011;51369;49.862;9.908;2024-02-04T04:31:51;1.52;;;1.42;;
64875;SDS011;51369;49.862;9.908;2024-02-04T04:34:17;1.58;;;1.48;;
64875;SDS011;51369;49.862;9.908;2024-02-04T04:36:44;1.23;;;1.20;;
64875;SDS011;51369;49.862;9.908;2024-02-04T04:39:10;1.45;;;1.30;;
64875;SDS011;51369;49.862;9.908;2024-02-04T04:41:35;1.48;;;1.33;;
64875;SDS011;51369;49.862;9.908;2024-02-04T04:44:01;1.20;;;1.10;;
64875;SDS011;51369;49.862;9.908;2024-02-04T04:46:26;1.20;;;1.10;;
64875;SDS011;51369;49.862;9.908;2024-02-04T04:48:51;1.02;;;1.00;;
64875;SDS011;51369;49.862;9.908;2024-02-04T04:51:18;1.27;;;1.08;;
64875;SDS011;51369;49.862;9.908;2024-02-04T04:53:43;1.15;;;1.05;;
64875;SDS011;51369;49.862;9.908;2024-02-04T04:56:08;0.95;;;0.90;;
64875;SDS011;51369;49.862;9.908;2024-02-04T04:58:35;0.90;;;0.90;;
64875;SDS011;51369;49.862;9.908;2024-02-04T05:01:00;0.70;;;0.70;;
64875;SDS011;51369;49.862;9.908;2024-02-04T05:03:26;0.80;;;0.80;;
64875;SDS011;51369;49.862;9.908;2024-02-04T05:05:52;0.80;;;0.70;;
64875;SDS011;51369;49.862;9.908;2024-02-04T05:08:17;0.60;;;0.60;;
64875;SDS011;51369;49.862;9.908;2024-02-04T05:10:42;0.80;;;0.80;;
64875;SDS011;51369;49.862;9.908;2024-02-04T05:13:08;0.70;;;0.70;;
64875;SDS011;51369;49.862;9.908;2024-02-04T05:15:33;0.80;;;0.80;;
64875;SDS011;51369;49.862;9.908;2024-02-04T05:18:02;1.08;;;0.68;;
64875;SDS011;51369;49.862;9.908;2024-02-04T05:20:27;0.77;;;0.77;;
64875;SDS011;51369;49.862;9.908;2024-02-04T05:22:53;2.10;;;0.82;;
64875;SDS011;51369;49.862;9.908;2024-02-04T05:25:19;0.70;;;0.70;;
64875;SDS011;51369;49.862;9.908;2024-02-04T05:27:45;0.80;;;0.80;;
64875;SDS011;51369;49.862;9.908;2024-02-04T05:30:10;1.00;;;0.80;;
64875;SDS011;51369;49.862;9.908;2024-02-04T05:32:36;0.50;;;0.50;;
64875;SDS011;51369;49.862;9.908;2024-02-04T05:35:02;1.10;;;0.93;;
64875;SDS011;51369;49.862;9.908;2024-02-04T05:37:28;0.60;;;0.60;;
64875;SDS011;51369;49.862;9.908;2024-02-04T05:39:54;0.90;;;0.90;;
64875;SDS011;51369;49.862;9.908;2024-02-04T05:42:19;0.85;;;0.85;;
64875;SDS011;51369;49.862;9.908;2024-02-04T05:44:44;0.70;;;0.70;;
64875;SDS011;51369;49.862;9.908;2024-02-04T05:47:10;1.10;;;0.70;;
64875;SDS011;51369;49.862;9.908;2024-02-04T05:49:35;0.70;;;0.70;;
64875;SDS011;51369;49.862;9.908;2024-02-04T05:52:01;1.00;;;0.90;;
64875;SDS011;51369;49.862;9.908;2024-02-04T05:54:26;1.77;;;0.85;;
64875;SDS011;51369;49.862;9.908;2024-02-04T05:56:51;1.20;;;1.10;;
64875;SDS011;51369;49.862;9.908;2024-02-04T05:59:17;0.80;;;0.80;;
64875;SDS011;51369;49.862;9.908;2024-02-04T06:01:42;0.95;;;0.90;;
64875;SDS011;51369;49.862;9.908;2024-02-04T06:04:08;0.98;;;0.98;;
64875;SDS011;51369;49.862;9.908;2024-02-04T06:06:33;1.30;;;1.08;;
64875;SDS011;51369;49.862;9.908;2024-02-04T06:08:59;0.98;;;0.93;;
64875;SDS011;51369;49.862;9.908;2024-02-04T06:11:24;1.17;;;1.02;;
64875;SDS011;51369;49.862;9.908;2024-02-04T06:13:49;1.15;;;1.08;;
64875;SDS011;51369;49.862;9.908;2024-02-04T06:16:15;1.42;;;1.33;;
64875;SDS011;51369;49.862;9.908;2024-02-04T06:18:40;3.03;;;1.60;;
64875;SDS011;51369;49.862;9.908;2024-02-04T06:21:06;1.27;;;1.17;;
64875;SDS011;51369;49.862;9.908;2024-02-04T06:23:32;6.53;;;2.97;;
64875;SDS011;51369;49.862;9.908;2024-02-04T06:25:57;1.30;;;1.08;;
64875;SDS011;51369;49.862;9.908;2024-02-04T06:28:23;1.63;;;1.33;;
64875;SDS011;51369;49.862;9.908;2024-02-04T06:30:48;1.33;;;1.10;;
64875;SDS011;51369;49.862;9.908;2024-02-04T06:33:15;2.83;;;1.13;;
64875;SDS011;51369;49.862;9.908;2024-02-04T06:35:40;3.00;;;1.30;;
64875;SDS011;51369;49.862;9.908;2024-02-04T06:38:06;0.88;;;0.88;;
64875;SDS011;51369;49.862;9.908;2024-02-04T06:40:32;3.00;;;1.20;;
64875;SDS011;51369;49.862;9.908;2024-02-04T06:42:57;1.25;;;1.15;;
64875;SDS011;51369;49.862;9.908;2024-02-04T06:45:23;1.02;;;1.00;;
64875;SDS011;51369;49.862;9.908;2024-02-04T06:47:48;0.98;;;0.98;;
64875;SDS011;51369;49.862;9.908;2024-02-04T06:50:14;1.05;;;0.90;;
64875;SDS011;51369;49.862;9.908;2024-02-04T06:52:41;1.55;;;1.35;;
64875;SDS011;51369;49.862;9.908;2024-02-04T06:55:07;2.25;;;1.45;;
64875;SDS011;51369;49.862;9.908;2024-02-04T06:57:33;2.65;;;1.00;;
64875;SDS011;51369;49.862;9.908;2024-02-04T06:59:58;1.25;;;1.15;;
64875;SDS011;51369;49.862;9.908;2024-02-04T07:02:24;1.30;;;1.20;;
64875;SDS011;51369;49.862;9.908;2024-02-04T07:04:49;3.13;;;1.20;;
64875;SDS011;51369;49.862;9.908;2024-02-04T07:07:14;1.15;;;1.05;;
64875;SDS011;51369;49.862;9.908;2024-02-04T07:09:40;2.28;;;1.05;;
64875;SDS011;51369;49.862;9.908;2024-02-04T07:12:05;1.35;;;1.23;;
64875;SDS011;51369;49.862;9.908;2024-02-04T07:14:31;1.33;;;1.23;;
64875;SDS011;51369;49.862;9.908;2024-02-04T07:16:56;1.52;;;1.42;;
64875;SDS011;51369;49.862;9.908;2024-02-04T07:19:21;1.45;;;1.10;;
64875;SDS011;51369;49.862;9.908;2024-02-04T07:21:47;1.77;;;1.67;;
64875;SDS011;51369;49.862;9.908;2024-02-04T07:24:12;1.33;;;1.23;;
64875;SDS011;51369;49.862;9.908;2024-02-04T07:26:38;1.20;;;1.10;;
64875;SDS011;51369;49.862;9.908;2024-02-04T07:29:03;1.48;;;1.38;;
64875;SDS011;51369;49.862;9.908;2024-02-04T07:31:29;1.42;;;1.33;;
64875;SDS011;51369;49.862;9.908;2024-02-04T07:33:55;1.40;;;1.30;;
64875;SDS011;51369;49.862;9.908;2024-02-04T07:36:20;1.25;;;1.15;;
64875;SDS011;51369;49.862;9.908;2024-02-04T07:38:46;1.60;;;1.50;;
64875;SDS011;51369;49.862;9.908;2024-02-04T07:41:14;1.55;;;1.35;;
64875;SDS011;51369;49.862;9.908;2024-02-04T07:43:40;1.95;;;1.30;;
64875;SDS011;51369;49.862;9.908;2024-02-04T07:46:07;1.70;;;1.60;;
64875;SDS011;51369;49.862;9.908;2024-02-04T07:48:33;2.35;;;1.58;;
64875;SDS011;51369;49.862;9.908;2024-02-04T07:50:59;1.42;;;1.33;;
64875;SDS011;51369;49.862;9.908;2024-02-04T07:53:24;1.27;;;1.20;;
64875;SDS011;51369;49.862;9.908;2024-02-04T07:55:50;1.40;;;1.30;;
64875;SDS011;51369;49.862;9.908;2024-02-04T07:58:16;1.40;;;1.30;;
64875;SDS011;51369;49.862;9.908;2024-02-04T08:00:41;1.60;;;1.50;;
64875;SDS011;51369;49.862;9.908;2024-02-04T08:03:07;1.90;;;1.67;;
64875;SDS011;51369;49.862;9.908;2024-02-04T08:05:32;1.50;;;1.40;;
64875;SDS011;51369;49.862;9.908;2024-02-04T08:08:00;2.25;;;1.10;;
64875;SDS011;51369;49.862;9.908;2024-02-04T08:10:26;0.90;;;0.90;;
64875;SDS011;51369;49.862;9.908;2024-02-04T08:12:51;1.50;;;1.17;;
64875;SDS011;51369;49.862;9.908;2024-02-04T08:15:18;1.20;;;1.10;;
64875;SDS011;51369;49.862;9.908;2024-02-04T08:17:43;2.42;;;1.30;;
64875;SDS011;51369;49.862;9.908;2024-02-04T08:20:09;1.20;;;1.00;;
64875;SDS011;51369;49.862;9.908;2024-02-04T08:22:34;0.80;;;0.80;;
64875;SDS011;51369;49.862;9.908;2024-02-04T08:25:00;1.10;;;1.00;;
64875;SDS011;51369;49.862;9.908;2024-02-04T08:27:26;1.58;;;1.08;;
64875;SDS011;51369;49.862;9.908;2024-02-04T08:29:52;2.22;;;0.98;;
64875;SDS011;51369;49.862;9.908;2024-02-04T08:32:17;0.85;;;0.85;;
64875;SDS011;51369;49.862;9.908;2024-02-04T08:34:42;0.70;;;0.70;;
64875;SDS011;51369;49.862;9.908;2024-02-04T08:37:08;1.45;;;0.90;;
64875;SDS011;51369;49.862;9.908;2024-02-04T08:39:34;0.90;;;0.90;;
64875;SDS011;51369;49.862;9.908;2024-02-04T08:41:59;0.77;;;0.70;;
64875;SDS011;51369;49.862;9.908;2024-02-04T08:44:24;0.77;;;0.77;;
64875;SDS011;51369;49.862;9.908;2024-02-04T08:46:50;0.70;;;0.70;;
64875;SDS011;51369;49.862;9.908;2024-02-04T08:49:16;0.60;;;0.60;;
64875;SDS011;51369;49.862;9.908;2024-02-04T08:51:41;0.70;;;0.70;;
64875;SDS011;51369;49.862;9.908;2024-02-04T08:54:07;0.70;;;0.70;;
64875;SDS011;51369;49.862;9.908;2024-02-04T08:56:32;0.70;;;0.70;;
64875;SDS011;51369;49.862;9.908;2024-02-04T08:58:58;1.88;;;0.93;;
64875;SDS011;51369;49.862;9.908;2024-02-04T09:01:24;1.55;;;0.63;;
64875;SDS011;51369;49.862;9.908;2024-02-04T09:03:50;0.63;;;0.63;;
64875;SDS011;51369;49.862;9.908;2024-02-04T09:06:15;0.50;;;0.50;;
64875;SDS011;51369;49.862;9.908;2024-02-04T09:08:41;2.55;;;0.60;;
64875;SDS011;51369;49.862;9.908;2024-02-04T09:11:06;0.60;;;0.60;;
64875;SDS011;51369;49.862;9.908;2024-02-04T09:13:32;0.70;;;0.70;;
64875;SDS011;51369;49.862;9.908;2024-02-04T09:15:57;0.80;;;0.80;;
64875;SDS011;51369;49.862;9.908;2024-02-04T09:18:22;0.70;;;0.60;;
64875;SDS011;51369;49.862;9.908;2024-02-04T09:20:48;0.80;;;0.68;;
64875;SDS011;51369;49.862;9.908;2024-02-04T09:23:13;2.30;;;0.70;;
64875;SDS011;51369;49.862;9.908;2024-02-04T09:25:38;0.40;;;0.40;;
64875;SDS011;51369;49.862;9.908;2024-02-04T09:28:04;1.50;;;0.55;;
64875;SDS011;51369;49.862;9.908;2024-02-04T09:30:29;1.35;;;0.50;;
64875;SDS011;51369;49.862;9.908;2024-02-04T09:32:55;1.15;;;0.57;;
64875;SDS011;51369;49.862;9.908;2024-02-04T09:35:20;0.50;;;0.50;;
64875;SDS011;51369;49.862;9.908;2024-02-04T09:37:46;0.50;;;0.50;;
64875;SDS011;51369;49.862;9.908;2024-02-04T09:40:11;1.30;;;0.50;;
64875;SDS011;51369;49.862;9.908;2024-02-04T09:42:37;1.15;;;0.38;;
64875;SDS011;51369;49.862;9.908;2024-02-04T09:45:03;0.40;;;0.40;;
64875;SDS011;51369;49.862;9.908;2024-02-04T09:47:29;1.75;;;0.50;;
64875;SDS011;51369;49.862;9.908;2024-02-04T09:49:57;1.55;;;0.55;;
64875;SDS011;51369;49.862;9.908;2024-02-04T09:52:26;0.47;;;0.47;;
64875;SDS011;51369;49.862;9.908;2024-02-04T09:54:56;0.38;;;0.38;;
64875;SDS011;51369;49.862;9.908;2024-02-04T09:57:25;0.57;;;0.57;;
64875;SDS011;51369;49.862;9.908;2024-02-04T09:59:51;0.60;;;0.60;;
64875;SDS011;51369;49.862;9.908;2024-02-04T10:02:16;0.63;;;0.60;;
64875;SDS011;51369;49.862;9.908;2024-02-04T10:04:42;0.80;;;0.47;;
64875;SDS011;51369;49.862;9.908;2024-02-04T10:07:08;0.40;;;0.40;;
64875;SDS011;51369;49.862;9.908;2024-02-04T10:09:33;0.45;;;0.45;;
64875;SDS011;51369;49.862;9.908;2024-02-04T10:11:59;0.40;;;0.40;;
64875;SDS011;51369;49.862;9.908;2024-02-04T10:14:24;1.15;;;0.40;;
64875;SDS011;51369;49.862;9.908;2024-02-04T10:16:50;0.40;;;0.40;;
64875;SDS011;51369;49.862;9.908;2024-02-04T10:19:16;0.50;;;0.50;;
64875;SDS011;51369;49.862;9.908;2024-02-04T10:21:41;0.63;;;0.35;;
64875;SDS011;51369;49.862;9.908;2024-02-04T10:24:07;0.40;;;0.40;;
64875;SDS011;51369;49.862;9.908;2024-02-04T10:26:33;0.38;;;0.38;;
64875;SDS011;51369;49.862;9.908;2024-02-04T10:29:02;1.38;;;0.40;;
64875;SDS011;51369;49.862;9.908;2024-02-04T10:31:27;0.50;;;0.50;;
64875;SDS011;51369;49.862;9.908;2024-02-04T10:33:54;0.40;;;0.40;;
64875;SDS011;51369;49.862;9.908;2024-02-04T10:36:20;0.50;;;0.50;;
64875;SDS011;51369;49.862;9.908;2024-02-04T10:38:45;0.57;;;0.57;;
64875;SDS011;51369;49.862;9.908;2024-02-04T10:41:14;0.50;;;0.50;;
64875;SDS011;51369;49.862;9.908;2024-02-04T10:43:40;0.50;;;0.50;;
64875;SDS011;51369;49.862;9.908;2024-02-04T10:48:36;0.95;;;0.57;;
64875;SDS011;51369;49.862;9.908;2024-02-04T10:51:13;0.60;;;0.60;;
64875;SDS011;51369;49.862;9.908;2024-02-04T10:53:43;0.63;;;0.60;;
64875;SDS011;51369;49.862;9.908;2024-02-04T10:56:18;1.30;;;0.50;;
64875;SDS011;51369;49.862;9.908;2024-02-04T10:58:47;0.80;;;0.80;;
64875;SDS011;51369;49.862;9.908;2024-02-04T11:01:14;0.70;;;0.70;;
64875;SDS011;51369;49.862;9.908;2024-02-04T11:03:39;0.70;;;0.70;;
64875;SDS011;51369;49.862;9.908;2024-02-04T11:06:07;1.02;;;0.70;;
64875;SDS011;51369;49.862;9.908;2024-02-04T11:08:34;1.63;;;0.80;;
64875;SDS011;51369;49.862;9.908;2024-02-04T11:10:59;0.70;;;0.70;;
64875;SDS011;51369;49.862;9.908;2024-02-04T11:13:25;1.13;;;0.90;;
64875;SDS011;51369;49.862;9.908;2024-02-04T11:15:53;0.90;;;0.80;;
64875;SDS011;51369;49.862;9.908;2024-02-04T11:26:17;2.22;;;1.10;;
64875;SDS011;51369;49.862;9.908;2024-02-04T11:28:43;1.00;;;0.80;;
64875;SDS011;51369;49.862;9.908;2024-02-04T11:31:17;0.82;;;0.80;;
64875;SDS011;51369;49.862;9.908;2024-02-04T11:33:44;0.70;;;0.70;;
64875;SDS011;51369;49.862;9.908;2024-02-04T11:36:13;1.00;;;0.77;;
64875;SDS011;51369;49.862;9.908;2024-02-04T11:38:40;0.82;;;0.82;;
64875;SDS011;51369;49.862;9.908;2024-02-04T11:41:06;0.70;;;0.70;;
64875;SDS011;51369;49.862;9.908;2024-02-04T11:43:32;0.70;;;0.70;;
64875;SDS011;51369;49.862;9.908;2024-02-04T11:45:59;1.02;;;1.00;;
64875;SDS011;51369;49.862;9.908;2024-02-04T11:48:34;1.02;;;1.02;;
64875;SDS011;51369;49.862;9.908;2024-02-04T11:51:01;0.90;;;0.70;;
64875;SDS011;51369;49.862;9.908;2024-02-04T11:53:29;1.30;;;1.10;;
64875;SDS011;51369;49.862;9.908;2024-02-04T11:55:58;0.70;;;0.70;;
64875;SDS011;51369;49.862;9.908;2024-02-04T11:58:25;0.73;;;0.73;;
64875;SDS011;51369;49.862;9.908;2024-02-04T12:00:52;0.70;;;0.70;;
64875;SDS011;51369;49.862;9.908;2024-02-04T12:03:28;0.70;;;0.70;;
64875;SDS011;51369;49.862;9.908;2024-02-04T12:06:00;0.82;;;0.82;;
64875;SDS011;51369;49.862;9.908;2024-02-04T12:08:29;1.30;;;0.82;;
64875;SDS011;51369;49.862;9.908;2024-02-04T12:10:56;0.70;;;0.68;;
64875;SDS011;51369;49.862;9.908;2024-02-04T12:13:23;0.60;;;0.60;;
64875;SDS011;51369;49.862;9.908;2024-02-04T12:15:49;1.00;;;0.73;;
64875;SDS011;51369;49.862;9.908;2024-02-04T12:18:14;0.85;;;0.70;;
64875;SDS011;51369;49.862;9.908;2024-02-04T12:20:41;0.65;;;0.65;;
64875;SDS011;51369;49.862;9.908;2024-02-04T12:23:07;0.70;;;0.70;;
64875;SDS011;51369;49.862;9.908;2024-02-04T12:25:33;0.73;;;0.73;;
64875;SDS011;51369;49.862;9.908;2024-02-04T12:27:59;0.80;;;0.80;;
64875;SDS011;51369;49.862;9.908;2024-02-04T12:30:28;0.85;;;0.60;;
64875;SDS011;51369;49.862;9.908;2024-02-04T12:32:57;0.82;;;0.82;;
64875;SDS011;51369;49.862;9.908;2024-02-04T12:35:23;0.45;;;0.45;;
64875;SDS011;51369;49.862;9.908;2024-02-04T12:37:50;0.70;;;0.70;;
64875;SDS011;51369;49.862;9.908;2024-02-04T12:40:23;0.60;;;0.60;;
64875;SDS011;51369;49.862;9.908;2024-02-04T12:43:00;0.70;;;0.70;;
64875;SDS011;51369;49.862;9.908;2024-02-04T12:45:27;1.10;;;0.60;;
64875;SDS011;51369;49.862;9.908;2024-02-04T12:47:55;0.82;;;0.70;;
64875;SDS011;51369;49.862;9.908;2024-02-04T12:50:21;0.47;;;0.47;;
64875;SDS011;51369;49.862;9.908;2024-02-04T12:52:48;1.00;;;0.70;;
64875;SDS011;51369;49.862;9.908;2024-02-04T12:55:25;0.50;;;0.50;;
64875;SDS011;51369;49.862;9.908;2024-02-04T13:03:06;0.60;;;0.60;;
64875;SDS011;51369;49.862;9.908;2024-02-04T13:05:35;0.80;;;0.70;;
64875;SDS011;51369;49.862;9.908;2024-02-04T13:08:02;0.88;;;0.80;;
64875;SDS011;51369;49.862;9.908;2024-02-04T13:10:30;1.13;;;0.60;;
64875;SDS011;51369;49.862;9.908;2024-02-04T13:15:31;0.70;;;0.70;;
64875;SDS011;51369;49.862;9.908;2024-02-04T13:17:58;1.13;;;0.95;;
64875;SDS011;51369;49.862;9.908;2024-02-04T13:20:24;0.85;;;0.73;;
64875;SDS011;51369;49.862;9.908;2024-02-04T13:22:49;0.73;;;0.70;;
64875;SDS011;51369;49.862;9.908;2024-02-04T13:25:15;0.75;;;0.75;;
64875;SDS011;51369;49.862;9.908;2024-02-04T13:27:40;1.63;;;1.13;;
64875;SDS011;51369;49.862;9.908;2024-02-04T13:30:06;1.05;;;0.93;;
64875;SDS011;51369;49.862;9.908;2024-02-04T13:32:37;0.95;;;0.75;;
64875;SDS011;51369;49.862;9.908;2024-02-04T13:35:04;0.60;;;0.60;;
64875;SDS011;51369;49.862;9.908;2024-02-04T13:37:31;1.52;;;0.80;;
64875;SDS011;51369;49.862;9.908;2024-02-04T13:39:56;0.70;;;0.70;;
64875;SDS011;51369;49.862;9.908;2024-02-04T13:42:22;0.60;;;0.60;;
64875;SDS011;51369;49.862;9.908;2024-02-04T13:44:48;0.70;;;0.70;;
64875;SDS011;51369;49.862;9.908;2024-02-04T13:47:14;0.93;;;0.88;;
64875;SDS011;51369;49.862;9.908;2024-02-04T13:49:39;1.77;;;0.75;;
64875;SDS011;51369;49.862;9.908;2024-02-04T13:52:05;0.70;;;0.70;;
64875;SDS011;51369;49.862;9.908;2024-02-04T13:54:30;1.48;;;0.65;;
64875;SDS011;51369;49.862;9.908;2024-02-04T13:56:56;0.70;;;0.70;;
64875;SDS011;51369;49.862;9.908;2024-02-04T13:59:21;0.70;;;0.70;;
64875;SDS011;51369;49.862;9.908;2024-02-04T14:01:47;2.17;;;0.95;;
64875;SDS011;51369;49.862;9.908;2024-02-04T14:04:12;2.40;;;0.85;;
64875;SDS011;51369;49.862;9.908;2024-02-04T14:06:37;0.60;;;0.60;;
64875;SDS011;51369;49.862;9.908;2024-02-04T14:09:03;0.93;;;0.75;;
64875;SDS011;51369;49.862;9.908;2024-02-04T14:11:28;0.60;;;0.60;;
64875;SDS011;51369;49.862;9.908;2024-02-04T14:13:54;0.88;;;0.70;;
64875;SDS011;51369;49.862;9.908;2024-02-04T14:16:19;1.00;;;0.90;;
64875;SDS011;51369;49.862;9.908;2024-02-04T14:18:44;0.82;;;0.82;;
64875;SDS011;51369;49.862;9.908;2024-02-04T14:21:11;0.70;;;0.70;;
64875;SDS011;51369;49.862;9.908;2024-02-04T14:23:39;0.70;;;0.70;;
64875;SDS011;51369;49.862;9.908;2024-02-04T14:26:04;1.05;;;0.80;;
64875;SDS011;51369;49.862;9.908;2024-02-04T14:28:33;0.90;;;0.73;;
64875;SDS011;51369;49.862;9.908;2024-02-04T14:31:06;0.80;;;0.80;;
64875;SDS011;51369;49.862;9.908;2024-02-04T14:33:31;1.65;;;1.55;;
64875;SDS011;51369;49.862;9.908;2024-02-04T14:35:57;1.05;;;0.75;;
64875;SDS011;51369;49.862;9.908;2024-02-04T14:38:22;0.55;;;0.55;;
64875;SDS011;51369;49.862;9.908;2024-02-04T14:40:48;2.45;;;0.80;;
64875;SDS011;51369;49.862;9.908;2024-02-04T14:43:13;0.80;;;0.75;;
64875;SDS011;51369;49.862;9.908;2024-02-04T14:45:40;0.50;;;0.50;;
64875;SDS011;51369;49.862;9.908;2024-02-04T14:48:05;1.00;;;0.80;;
64875;SDS011;51369;49.862;9.908;2024-02-04T14:50:31;2.58;;;0.70;;
64875;SDS011;51369;49.862;9.908;2024-02-04T14:52:56;0.60;;;0.60;;
64875;SDS011;51369;49.862;9.908;2024-02-04T14:55:22;0.60;;;0.60;;
64875;SDS011;51369;49.862;9.908;2024-02-04T14:57:47;3.15;;;0.70;;
64875;SDS011;51369;49.862;9.908;2024-02-04T15:00:12;0.82;;;0.70;;
64875;SDS011;51369;49.862;9.908;2024-02-04T15:02:39;0.70;;;0.70;;